createdAt,value
2017-11-27T00:00:08.419Z,4.40
2017-11-27T00:02:35.989Z,4.45
2017-11-27T00:05:02.929Z,4.03
2017-11-27T00:07:29.826Z,3.80
2017-11-27T00:09:57.460Z,4.68
2017-11-27T00:12:24.342Z,5.20
2017-11-27T00:14:51.213Z,5.28
2017-11-27T00:17:18.815Z,5.57
2017-11-27T00:19:45.652Z,5.05
2017-11-27T00:22:12.599Z,4.00
2017-11-27T00:24:39.477Z,4.70
2017-11-27T00:27:07.157Z,3.70
2017-11-27T00:29:34.016Z,4.57
2017-11-27T00:32:00.871Z,5.65
2017-11-27T00:34:27.732Z,4.90
2017-11-27T00:36:54.585Z,4.43
2017-11-27T00:39:21.463Z,5.78
2017-11-27T00:41:49.052Z,5.70
2017-11-27T00:44:15.921Z,6.47
2017-11-27T00:46:42.772Z,5.57
2017-11-27T00:49:09.672Z,6.40
2017-11-27T00:51:36.512Z,7.10
2017-11-27T00:54:04.145Z,6.82
2017-11-27T00:56:31.765Z,6.50
2017-11-27T00:58:58.681Z,7.80
2017-11-27T01:01:25.609Z,6.00
2017-11-27T01:03:52.548Z,9.38
2017-11-27T01:06:20.204Z,8.98
2017-11-27T01:08:47.067Z,10.00
2017-11-27T01:11:13.979Z,9.13
2017-11-27T01:13:41.621Z,8.27
2017-11-27T01:16:08.488Z,8.90
2017-11-27T01:18:35.351Z,11.15
2017-11-27T01:21:02.249Z,8.20
2017-11-27T01:23:29.136Z,9.93
2017-11-27T01:25:56.016Z,8.07
2017-11-27T01:28:23.640Z,8.25
2017-11-27T01:30:50.540Z,7.75
2017-11-27T01:33:17.408Z,7.47
2017-11-27T01:35:44.306Z,6.90
2017-11-27T01:38:11.209Z,6.70
2017-11-27T01:40:38.818Z,5.65
2017-11-27T01:43:05.720Z,5.93
2017-11-27T01:45:32.653Z,7.20
2017-11-27T01:48:00.302Z,6.62
2017-11-27T01:50:27.924Z,6.95
2017-11-27T01:52:55.582Z,6.32
2017-11-27T01:55:22.476Z,6.75
2017-11-27T01:57:49.403Z,5.28
2017-11-27T02:00:16.260Z,4.28
2017-11-27T02:02:43.164Z,5.20
2017-11-27T02:05:10.070Z,5.15
2017-11-27T02:07:36.976Z,6.10
2017-11-27T02:10:03.892Z,5.78
2017-11-27T02:12:30.768Z,6.55
2017-11-27T02:14:57.617Z,7.18
2017-11-27T02:17:24.496Z,8.43
2017-11-27T02:19:51.416Z,7.12
2017-11-27T02:22:19.068Z,5.93
2017-11-27T02:24:45.941Z,6.05
2017-11-27T02:27:12.792Z,6.07
2017-11-27T02:29:40.386Z,5.60
2017-11-27T02:32:07.243Z,6.85
2017-11-27T02:34:34.096Z,5.28
2017-11-27T02:37:00.975Z,5.65
2017-11-27T02:39:28.589Z,6.28
2017-11-27T02:41:55.524Z,6.35
2017-11-27T02:44:22.478Z,6.07
2017-11-27T02:46:49.385Z,5.62
2017-11-27T02:49:16.251Z,8.00
2017-11-27T02:51:43.164Z,5.70
2017-11-27T02:54:10.785Z,5.80
2017-11-27T02:56:38.408Z,4.47
2017-11-27T02:59:05.304Z,4.30
2017-11-27T03:01:32.187Z,5.85
2017-11-27T03:03:59.033Z,4.37
2017-11-27T03:06:25.924Z,5.00
2017-11-27T03:08:52.816Z,4.75
2017-11-27T03:11:19.684Z,3.97
2017-11-27T03:13:46.576Z,3.95
2017-11-27T03:16:13.430Z,3.17
2017-11-27T03:18:40.317Z,3.30
2017-11-27T03:21:07.164Z,3.12
2017-11-27T03:23:34.000Z,3.33
2017-11-27T03:26:00.896Z,4.10
2017-11-27T03:28:28.481Z,3.50
2017-11-27T03:30:55.330Z,4.12
2017-11-27T03:33:22.253Z,3.70
2017-11-27T03:35:49.143Z,3.35
2017-11-27T03:38:16.025Z,4.30
2017-11-27T03:40:43.660Z,3.25
2017-11-27T03:43:10.529Z,3.30
2017-11-27T03:45:37.409Z,2.85
2017-11-27T03:48:04.315Z,3.30
2017-11-27T03:50:31.937Z,3.12
2017-11-27T03:52:58.800Z,2.47
2017-11-27T03:55:26.416Z,3.45
2017-11-27T03:57:53.304Z,3.67
2017-11-27T04:00:20.931Z,3.95
2017-11-27T04:02:47.831Z,3.72
2017-11-27T04:05:14.696Z,3.78
2017-11-27T04:07:41.560Z,3.42
2017-11-27T04:10:08.421Z,3.20
2017-11-27T04:12:35.284Z,3.85
2017-11-27T04:15:02.309Z,3.50
2017-11-27T04:17:29.253Z,3.75
2017-11-27T04:19:56.116Z,8.07
2017-11-27T04:22:23.044Z,4.72
2017-11-27T04:24:49.931Z,3.78
2017-11-27T04:27:16.841Z,3.10
2017-11-27T04:29:43.684Z,2.53
2017-11-27T04:32:10.576Z,2.97
2017-11-27T04:34:37.447Z,3.35
2017-11-27T04:37:04.356Z,3.15
2017-11-27T04:39:31.265Z,3.87
2017-11-27T04:41:58.142Z,3.30
2017-11-27T04:44:25.005Z,2.87
2017-11-27T04:46:51.940Z,3.00
2017-11-27T04:49:18.824Z,3.10
2017-11-27T04:51:45.749Z,3.50
2017-11-27T04:54:12.690Z,3.42
2017-11-27T04:56:39.557Z,3.25
2017-11-27T04:59:06.420Z,4.20
2017-11-27T05:01:34.065Z,3.53
2017-11-27T05:04:00.969Z,2.10
2017-11-27T05:06:28.578Z,3.60
2017-11-27T05:08:55.453Z,3.85
2017-11-27T05:11:23.035Z,3.25
2017-11-27T05:13:49.904Z,3.50
2017-11-27T05:16:16.816Z,3.50
2017-11-27T05:18:44.400Z,2.47
2017-11-27T05:21:11.260Z,3.10
2017-11-27T05:23:38.097Z,2.72
2017-11-27T05:26:05.024Z,2.70
2017-11-27T05:28:31.868Z,4.55
2017-11-27T05:30:58.739Z,5.30
2017-11-27T05:33:25.592Z,5.07
2017-11-27T05:35:52.484Z,7.12
2017-11-27T05:38:19.325Z,6.00
2017-11-27T05:40:46.224Z,5.03
2017-11-27T05:43:13.117Z,4.50
2017-11-27T05:45:40.721Z,4.55
2017-11-27T05:48:07.588Z,4.95
2017-11-27T05:50:34.480Z,4.57
2017-11-27T05:53:01.316Z,5.03
2017-11-27T05:55:28.516Z,5.35
2017-11-27T05:57:55.657Z,5.60
2017-11-27T06:00:23.381Z,5.32
2017-11-27T06:02:50.953Z,4.82
2017-11-27T06:05:17.885Z,6.10
2017-11-27T06:07:44.773Z,8.43
2017-11-27T06:10:11.671Z,8.70
2017-11-27T06:12:38.518Z,6.87
2017-11-27T06:15:29.603Z,5.78
2017-11-27T06:17:57.168Z,6.72
2017-11-27T06:20:24.056Z,5.57
2017-11-27T06:22:50.903Z,5.90
2017-11-27T06:25:17.796Z,4.57
2017-11-27T06:27:44.680Z,5.47
2017-11-27T06:30:11.560Z,5.43
2017-11-27T06:32:39.177Z,5.20
2017-11-27T06:35:06.065Z,5.35
2017-11-27T06:37:33.669Z,5.90
2017-11-27T06:40:00.512Z,5.65
2017-11-27T06:42:27.396Z,5.90
2017-11-27T06:44:55.017Z,8.55
2017-11-27T06:47:22.653Z,8.32
2017-11-27T06:49:49.577Z,8.40
2017-11-27T06:52:17.207Z,8.10
2017-11-27T06:54:44.086Z,7.45
2017-11-27T06:57:11.696Z,7.30
2017-11-27T06:59:38.600Z,7.75
2017-11-27T07:02:06.189Z,7.55
2017-11-27T07:04:34.068Z,7.90
2017-11-27T07:07:02.822Z,10.80
2017-11-27T07:09:29.745Z,9.90
2017-11-27T07:11:57.320Z,13.50
2017-11-27T07:14:24.244Z,12.40
2017-11-27T07:16:51.893Z,12.82
2017-11-27T07:19:18.748Z,13.50
2017-11-27T07:21:45.640Z,9.70
2017-11-27T07:24:12.517Z,8.70
2017-11-27T07:26:39.349Z,9.80
2017-11-27T07:29:06.213Z,10.63
2017-11-27T07:31:33.804Z,9.27
2017-11-27T07:34:01.389Z,10.50
2017-11-27T07:36:28.271Z,10.85
2017-11-27T07:39:01.280Z,20.80
2017-11-27T07:44:02.532Z,20.80
2017-11-27T07:46:30.173Z,18.10
2017-11-27T07:48:57.061Z,15.80
2017-11-27T07:51:23.952Z,13.43
2017-11-27T07:53:50.837Z,9.88
2017-11-27T07:56:18.441Z,10.57
2017-11-27T07:58:45.359Z,8.73
2017-11-27T08:01:12.220Z,9.38
2017-11-27T08:03:39.211Z,7.65
2017-11-27T08:06:06.826Z,7.72
2017-11-27T08:08:33.652Z,8.32
2017-11-27T08:11:00.533Z,7.75
2017-11-27T08:13:27.421Z,7.70
2017-11-27T08:15:54.328Z,7.80
2017-11-27T08:18:21.209Z,9.27
2017-11-27T08:20:48.053Z,7.50
2017-11-27T08:23:14.920Z,8.07
2017-11-27T08:25:41.824Z,8.20
2017-11-27T08:28:09.461Z,8.88
2017-11-27T08:30:36.322Z,9.60
2017-11-27T08:33:03.212Z,9.88
2017-11-27T08:35:30.073Z,8.77
2017-11-27T08:37:56.938Z,9.43
2017-11-27T08:40:23.814Z,8.23
2017-11-27T08:42:51.486Z,7.85
2017-11-27T08:45:18.390Z,8.70
2017-11-27T08:47:45.336Z,7.15
2017-11-27T08:50:12.260Z,6.57
2017-11-27T08:52:39.112Z,6.28
2017-11-27T08:55:06.081Z,6.28
2017-11-27T08:57:33.004Z,6.30
2017-11-27T09:00:00.651Z,7.35
2017-11-27T09:02:27.588Z,6.72
2017-11-27T09:04:54.496Z,7.47
2017-11-27T09:07:22.128Z,8.75
2017-11-27T09:09:50.605Z,10.00
2017-11-27T09:12:17.508Z,12.50
2017-11-27T09:14:44.433Z,10.98
2017-11-27T09:17:12.088Z,9.65
2017-11-27T09:19:39.666Z,11.23
2017-11-27T09:22:06.576Z,11.35
2017-11-27T09:24:33.496Z,10.73
2017-11-27T09:27:00.408Z,10.45
2017-11-27T09:29:27.271Z,9.75
2017-11-27T09:31:54.156Z,9.52
2017-11-27T09:34:21.061Z,9.50
2017-11-27T09:36:47.933Z,9.75
2017-11-27T09:39:14.879Z,10.52
2017-11-27T09:41:42.528Z,9.48
2017-11-27T09:44:09.456Z,9.63
2017-11-27T09:46:36.365Z,9.02
2017-11-27T09:49:03.285Z,8.73
2017-11-27T09:51:30.968Z,8.27
2017-11-27T09:53:57.938Z,8.95
2017-11-27T09:56:24.900Z,8.63
2017-11-27T09:58:51.788Z,9.98
2017-11-27T10:01:19.433Z,8.30
2017-11-27T10:03:46.408Z,8.80
2017-11-27T10:06:14.040Z,9.10
2017-11-27T10:08:40.932Z,8.00
2017-11-27T10:11:08.564Z,7.65
2017-11-27T10:13:36.225Z,6.60
2017-11-27T10:16:03.868Z,6.70
2017-11-27T10:18:30.821Z,5.93
2017-11-27T10:20:58.479Z,7.03
2017-11-27T10:23:25.370Z,5.57
2017-11-27T10:25:52.267Z,6.87
2017-11-27T10:28:19.118Z,5.20
2017-11-27T10:30:46.013Z,5.30
2017-11-27T10:33:12.905Z,6.40
2017-11-27T10:35:40.552Z,5.40
2017-11-27T10:38:07.469Z,5.83
2017-11-27T10:40:34.341Z,5.00
2017-11-27T10:43:01.224Z,5.07
2017-11-27T10:45:28.141Z,5.73
2017-11-27T10:47:55.795Z,5.40
2017-11-27T10:50:22.657Z,4.10
2017-11-27T10:52:49.572Z,4.40
2017-11-27T10:55:16.471Z,3.37
2017-11-27T10:57:44.141Z,4.37
2017-11-27T11:00:11.023Z,3.20
2017-11-27T11:02:37.906Z,4.00
2017-11-27T11:05:04.944Z,3.10
2017-11-27T11:07:32.576Z,3.33
2017-11-27T11:09:59.428Z,3.13
2017-11-27T11:12:26.353Z,2.67
2017-11-27T11:14:53.231Z,2.83
2017-11-27T11:17:20.128Z,3.73
2017-11-27T11:19:47.058Z,3.27
2017-11-27T11:22:14.000Z,3.17
2017-11-27T11:24:40.893Z,3.47
2017-11-27T11:27:07.844Z,3.30
2017-11-27T11:29:35.528Z,3.60
2017-11-27T11:32:03.133Z,3.20
2017-11-27T11:34:30.035Z,3.20
2017-11-27T11:36:57.653Z,3.23
2017-11-27T11:39:24.560Z,3.13
2017-11-27T11:41:51.491Z,3.30
2017-11-27T11:44:19.133Z,2.80
2017-11-27T11:46:46.813Z,3.20
2017-11-27T11:49:14.392Z,2.97
2017-11-27T11:51:41.292Z,3.27
2017-11-27T11:54:08.926Z,2.30
2017-11-27T11:56:35.825Z,3.10
2017-11-27T11:59:03.451Z,2.47
2017-11-27T12:01:30.366Z,1.37
2017-11-27T12:03:57.269Z,1.07
2017-11-27T12:06:24.176Z,1.00
2017-11-27T12:08:51.089Z,5.33
2017-11-27T12:11:17.996Z,1.37
2017-11-27T12:13:44.862Z,1.20
2017-11-27T12:16:11.784Z,1.20
2017-11-27T12:18:38.689Z,1.20
2017-11-27T12:21:05.609Z,1.20
2017-11-27T12:23:32.464Z,1.30
2017-11-27T12:25:59.379Z,1.00
2017-11-27T12:28:26.261Z,1.40
2017-11-27T12:30:53.132Z,1.80
2017-11-27T12:33:20.773Z,2.20
2017-11-27T12:35:47.676Z,1.03
2017-11-27T12:38:14.577Z,1.10
2017-11-27T12:40:41.483Z,1.47
2017-11-27T12:43:08.428Z,1.60
2017-11-27T12:45:35.472Z,1.00
2017-11-27T12:48:03.205Z,1.43
2017-11-27T12:50:30.126Z,1.10
2017-11-27T12:52:57.825Z,1.23
2017-11-27T12:55:24.762Z,1.00
2017-11-27T12:57:52.381Z,1.17
2017-11-27T13:00:19.321Z,0.90
2017-11-27T13:02:46.922Z,1.30
2017-11-27T13:05:13.850Z,1.00
2017-11-27T13:07:40.780Z,1.30
2017-11-27T13:10:08.505Z,1.10
2017-11-27T13:12:35.436Z,1.50
2017-11-27T13:15:02.304Z,1.10
2017-11-27T13:17:29.980Z,1.30
2017-11-27T13:19:56.881Z,1.10
2017-11-27T13:22:23.754Z,1.90
2017-11-27T13:24:50.629Z,1.10
2017-11-27T13:27:18.268Z,1.77
2017-11-27T13:29:45.125Z,1.53
2017-11-27T13:32:12.036Z,1.13
2017-11-27T13:34:38.935Z,1.27
2017-11-27T13:37:05.790Z,1.60
2017-11-27T13:39:33.405Z,1.60
2017-11-27T13:42:00.253Z,1.50
2017-11-27T13:44:27.158Z,1.33
2017-11-27T13:46:54.096Z,1.33
2017-11-27T13:49:21.014Z,1.37
2017-11-27T13:51:48.636Z,1.13
2017-11-27T13:54:15.576Z,1.03
2017-11-27T13:56:42.453Z,1.30
2017-11-27T13:59:10.109Z,1.50
2017-11-27T14:01:37.075Z,1.60
2017-11-27T14:04:04.702Z,1.23
2017-11-27T14:06:31.568Z,1.70
2017-11-27T14:08:58.631Z,0.97
2017-11-27T14:11:25.505Z,1.77
2017-11-27T14:13:52.376Z,1.47
2017-11-27T14:16:20.005Z,1.50
2017-11-27T14:18:47.856Z,1.47
2017-11-27T14:21:14.748Z,1.87
2017-11-27T14:23:41.665Z,1.10
2017-11-27T14:26:08.529Z,1.00
2017-11-27T14:28:35.427Z,1.10
2017-11-27T14:31:02.328Z,1.20
2017-11-27T14:33:29.993Z,1.10
2017-11-27T14:35:57.617Z,1.23
2017-11-27T14:38:24.644Z,1.25
2017-11-27T14:40:51.550Z,1.10
2017-11-27T14:43:19.260Z,1.30
2017-11-27T14:45:46.163Z,1.33
2017-11-27T14:48:13.828Z,1.33
2017-11-27T14:50:41.496Z,1.07
2017-11-27T14:53:09.188Z,1.50
2017-11-27T14:55:36.126Z,1.10
2017-11-27T14:58:03.035Z,1.40
2017-11-27T15:00:31.323Z,1.92
2017-11-27T15:02:59.021Z,1.95
2017-11-27T15:05:25.988Z,2.15
2017-11-27T15:07:52.953Z,1.35
2017-11-27T15:10:19.913Z,2.15
2017-11-27T15:12:46.820Z,1.92
2017-11-27T15:15:13.748Z,2.40
2017-11-27T15:17:40.661Z,1.55
2017-11-27T15:20:08.284Z,2.83
2017-11-27T15:22:35.971Z,3.85
2017-11-27T15:25:02.922Z,3.00
2017-11-27T15:27:30.621Z,2.53
2017-11-27T15:29:57.539Z,2.37
2017-11-27T15:32:25.047Z,4.00
2017-11-27T15:34:51.980Z,4.43
2017-11-27T15:37:19.728Z,5.87
2017-11-27T15:39:46.673Z,11.20
2017-11-27T15:42:14.305Z,7.82
2017-11-27T15:44:41.961Z,7.75
2017-11-27T15:47:08.850Z,9.73
2017-11-27T15:49:35.809Z,10.43
2017-11-27T15:52:02.741Z,14.30
2017-11-27T15:54:29.781Z,16.45
2017-11-27T15:56:56.729Z,19.05
2017-11-27T15:59:23.673Z,19.52
2017-11-27T16:01:50.638Z,17.33
2017-11-27T16:04:17.622Z,16.40
2017-11-27T16:06:44.573Z,16.08
2017-11-27T16:09:12.277Z,10.65
2017-11-27T16:11:39.196Z,9.88
2017-11-27T16:14:06.136Z,9.30
2017-11-27T16:16:33.764Z,8.23
2017-11-27T16:19:00.694Z,10.25
2017-11-27T16:21:27.632Z,11.38
2017-11-27T16:23:54.548Z,14.35
2017-11-27T16:26:21.523Z,16.87
2017-11-27T16:28:48.438Z,16.92
2017-11-27T16:31:15.384Z,17.67
2017-11-27T16:33:42.342Z,20.77
2017-11-27T16:36:09.235Z,18.85
2017-11-27T16:38:36.157Z,23.75
2017-11-27T16:41:03.080Z,26.90
2017-11-27T16:43:30.036Z,25.17
2017-11-27T16:45:56.985Z,28.70
2017-11-27T16:48:24.682Z,28.27
2017-11-27T16:50:51.625Z,25.45
2017-11-27T16:53:19.315Z,25.58
2017-11-27T16:55:46.237Z,21.87
2017-11-27T16:58:13.932Z,22.92
2017-11-27T17:00:41.127Z,22.50
2017-11-27T17:03:08.224Z,21.90
2017-11-27T17:05:35.124Z,19.33
2017-11-27T17:08:02.052Z,16.83
2017-11-27T17:10:29.009Z,20.58
2017-11-27T17:12:55.969Z,19.67
2017-11-27T17:15:22.913Z,21.52
2017-11-27T17:17:50.575Z,22.60
2017-11-27T17:20:17.511Z,19.98
2017-11-27T17:22:44.437Z,17.73
2017-11-27T17:25:11.434Z,16.80
2017-11-27T17:27:38.405Z,16.58
2017-11-27T17:30:05.350Z,16.50
2017-11-27T17:32:33.076Z,15.13
2017-11-27T17:35:00.735Z,13.77
2017-11-27T17:37:27.945Z,13.73
2017-11-27T17:39:54.865Z,14.07
2017-11-27T17:42:21.805Z,13.35
2017-11-27T17:44:48.765Z,13.82
2017-11-27T17:47:15.708Z,13.80
2017-11-27T17:49:42.649Z,14.87
2017-11-27T17:52:09.635Z,14.80
2017-11-27T17:54:36.533Z,13.70
2017-11-27T17:57:04.185Z,15.55
2017-11-27T17:59:31.073Z,15.82
2017-11-27T18:01:58.033Z,15.32
2017-11-27T18:04:24.996Z,14.20
2017-11-27T18:06:51.879Z,14.50
2017-11-27T18:09:18.820Z,13.77
2017-11-27T18:11:45.720Z,13.70
2017-11-27T18:14:12.609Z,13.68
2017-11-27T18:16:39.566Z,13.10
2017-11-27T18:19:06.544Z,11.82
2017-11-27T18:21:33.492Z,11.65
2017-11-27T18:24:00.387Z,11.27
2017-11-27T18:26:28.045Z,11.25
2017-11-27T18:28:54.939Z,12.65
2017-11-27T18:31:21.960Z,12.57
2017-11-27T18:33:48.875Z,12.30
2017-11-27T18:36:15.848Z,14.40
2017-11-27T18:38:43.091Z,14.05
2017-11-27T18:41:10.272Z,15.43
2017-11-27T18:43:37.210Z,25.35
2017-11-27T18:46:04.117Z,20.25
2017-11-27T18:48:31.029Z,23.17
2017-11-27T18:50:58.678Z,22.52
2017-11-27T18:53:25.623Z,23.65
2017-11-27T18:55:52.540Z,23.98
2017-11-27T18:58:19.449Z,22.37
2017-11-27T19:00:47.104Z,23.05
2017-11-27T19:03:14.021Z,21.73
2017-11-27T19:05:40.937Z,22.20
2017-11-27T19:08:07.880Z,19.58
2017-11-27T19:10:34.788Z,19.12
2017-11-27T19:13:02.413Z,19.65
2017-11-27T19:15:29.377Z,21.35
2017-11-27T19:17:56.280Z,17.62
2017-11-27T19:20:23.187Z,20.42
2017-11-27T19:22:50.826Z,18.35
2017-11-27T19:25:18.508Z,18.12
2017-11-27T19:27:46.144Z,15.35
2017-11-27T19:30:13.056Z,17.37
2017-11-27T19:32:39.950Z,17.37
2017-11-27T19:35:06.941Z,19.37
2017-11-27T19:37:33.817Z,18.42
2017-11-27T19:40:00.760Z,18.40
2017-11-27T19:42:28.479Z,18.70
2017-11-27T19:44:55.380Z,18.45
2017-11-27T19:47:23.140Z,19.85
2017-11-27T19:49:50.814Z,18.42
2017-11-27T19:52:18.432Z,21.08
2017-11-27T19:54:45.344Z,21.15
2017-11-27T19:57:12.273Z,17.83
2017-11-27T19:59:39.209Z,20.48
2017-11-27T20:02:06.140Z,19.40
2017-11-27T20:04:33.028Z,22.58
2017-11-27T20:06:59.940Z,18.50
2017-11-27T20:09:26.832Z,18.75
2017-11-27T20:11:54.473Z,18.05
2017-11-27T20:14:21.437Z,18.37
2017-11-27T20:16:48.328Z,14.98
2017-11-27T20:19:16.049Z,18.42
2017-11-27T20:21:42.961Z,19.17
2017-11-27T20:24:10.612Z,16.70
2017-11-27T20:26:37.505Z,16.92
2017-11-27T20:29:04.428Z,18.75
2017-11-27T20:31:31.312Z,16.05
2017-11-27T20:33:58.252Z,16.25
2017-11-27T20:36:25.189Z,17.67
2017-11-27T20:38:52.112Z,24.20
2017-11-27T20:41:19.029Z,18.20
2017-11-27T20:43:46.068Z,15.52
2017-11-27T20:46:13.745Z,15.90
2017-11-27T20:48:40.688Z,14.30
2017-11-27T20:51:07.672Z,13.52
2017-11-27T20:53:34.635Z,15.93
2017-11-27T20:56:01.544Z,23.08
2017-11-27T20:58:28.486Z,23.10
2017-11-27T21:00:55.388Z,25.10
2017-11-27T21:03:23.100Z,23.48
2017-11-27T21:05:50.056Z,24.08
2017-11-27T21:08:16.957Z,28.05
2017-11-27T21:10:43.890Z,28.23
2017-11-27T21:13:11.524Z,30.70
2017-11-27T21:15:38.472Z,28.30
2017-11-27T21:18:05.424Z,28.70
2017-11-27T21:20:32.316Z,28.20
2017-11-27T21:22:59.249Z,27.62
2017-11-27T21:25:26.177Z,25.88
2017-11-27T21:27:53.040Z,25.83
2017-11-27T21:30:19.958Z,23.40
2017-11-27T21:32:47.617Z,25.10
2017-11-27T21:35:15.408Z,25.98
2017-11-27T21:37:42.432Z,23.42
2017-11-27T21:40:09.422Z,23.80
2017-11-27T21:42:36.416Z,24.77
2017-11-27T21:45:03.355Z,26.87
2017-11-27T21:47:30.375Z,25.45
2017-11-27T21:49:57.376Z,23.35
2017-11-27T21:52:24.308Z,24.02
2017-11-27T21:54:51.257Z,25.20
2017-11-27T21:57:18.961Z,22.85
2017-11-27T21:59:45.872Z,21.27
2017-11-27T22:02:13.511Z,22.25
2017-11-27T22:04:40.441Z,23.50
2017-11-27T22:07:07.344Z,25.55
2017-11-27T22:09:34.269Z,27.60
2017-11-27T22:12:01.920Z,26.85
2017-11-27T22:14:29.537Z,23.60
2017-11-27T22:16:56.564Z,24.92
2017-11-27T22:19:23.432Z,22.90
2017-11-27T22:21:50.352Z,24.40
2017-11-27T22:24:17.280Z,25.88
2017-11-27T22:26:44.155Z,24.30
2017-11-27T22:29:11.068Z,23.12
2017-11-27T22:31:38.008Z,23.95
2017-11-27T22:34:04.896Z,25.85
2017-11-27T22:36:31.808Z,21.00
2017-11-27T22:38:58.733Z,23.70
2017-11-27T22:41:25.595Z,23.05
2017-11-27T22:43:52.502Z,24.48
2017-11-27T22:46:20.141Z,24.25
2017-11-27T22:48:47.058Z,25.33
2017-11-27T22:51:13.990Z,25.00
2017-11-27T22:53:40.921Z,23.23
2017-11-27T22:56:08.563Z,27.08
2017-11-27T22:58:35.477Z,36.55
2017-11-27T23:01:03.077Z,37.65
2017-11-27T23:03:30.016Z,35.00
2017-11-27T23:05:56.921Z,31.65
2017-11-27T23:08:23.849Z,31.50
2017-11-27T23:10:50.720Z,30.27
2017-11-27T23:13:17.607Z,29.73
2017-11-27T23:15:44.580Z,24.80
2017-11-27T23:18:11.523Z,24.90
2017-11-27T23:20:38.489Z,24.65
2017-11-27T23:23:05.447Z,22.62
2017-11-27T23:25:32.397Z,20.70
2017-11-27T23:27:59.296Z,20.55
2017-11-27T23:30:27.128Z,19.87
2017-11-27T23:32:54.073Z,21.73
2017-11-27T23:35:21.754Z,20.90
2017-11-27T23:37:48.691Z,21.73
2017-11-27T23:40:15.629Z,21.60
2017-11-27T23:42:43.273Z,22.75
2017-11-27T23:45:10.201Z,20.95
2017-11-27T23:47:37.117Z,20.48
2017-11-27T23:50:04.053Z,25.95
2017-11-27T23:52:30.949Z,28.48
2017-11-27T23:54:57.837Z,23.15
2017-11-27T23:57:24.764Z,23.83
2017-11-27T23:59:51.643Z,25.35
